sensor_id;sensor_type;location;lat;lon;timestamp;temperature;humidity
78550;DHT22;68091;52.130;5.570;2023-09-07T00:00:39;18.40;99.90
78550;DHT22;68091;52.130;5.570;2023-09-07T00:03:04;18.40;99.90
78550;DHT22;68091;52.130;5.570;2023-09-07T00:05:30;18.30;99.90
78550;DHT22;68091;52.130;5.570;2023-09-07T00:07:56;18.30;99.90
78550;DHT22;68091;52.130;5.570;2023-09-07T00:10:22;18.30;99.90
78550;DHT22;68091;52.130;5.570;2023-09-07T00:12:47;18.20;99.90
78550;DHT22;68091;52.130;5.570;2023-09-07T00:15:13;18.20;99.90
78550;DHT22;68091;52.130;5.570;2023-09-07T00:17:38;18.20;99.90
78550;DHT22;68091;52.130;5.570;2023-09-07T00:20:04;18.20;99.90
78550;DHT22;68091;52.130;5.570;2023-09-07T00:22:36;18.30;99.90
78550;DHT22;68091;52.130;5.570;2023-09-07T00:25:02;18.30;99.90
78550;DHT22;68091;52.130;5.570;2023-09-07T00:27:29;18.30;99.90
78550;DHT22;68091;52.130;5.570;2023-09-07T00:29:55;18.30;99.90
78550;DHT22;68091;52.130;5.570;2023-09-07T00:32:20;18.40;99.90
78550;DHT22;68091;52.130;5.570;2023-09-07T00:34:46;18.30;99.90
78550;DHT22;68091;52.130;5.570;2023-09-07T00:37:14;18.30;99.90
78550;DHT22;68091;52.130;5.570;2023-09-07T00:39:40;18.30;99.90
78550;DHT22;68091;52.130;5.570;2023-09-07T00:42:06;18.30;99.90
78550;DHT22;68091;52.130;5.570;2023-09-07T00:44:31;18.30;99.90
78550;DHT22;68091;52.130;5.570;2023-09-07T00:46:57;18.30;99.90
78550;DHT22;68091;52.130;5.570;2023-09-07T00:49:23;18.30;99.90
78550;DHT22;68091;52.130;5.570;2023-09-07T00:51:48;18.30;99.90
78550;DHT22;68091;52.130;5.570;2023-09-07T00:54:14;18.20;99.90
78550;DHT22;68091;52.130;5.570;2023-09-07T00:56:40;18.20;99.90
78550;DHT22;68091;52.130;5.570;2023-09-07T00:59:06;18.20;99.90
78550;DHT22;68091;52.130;5.570;2023-09-07T01:01:32;18.10;99.90
78550;DHT22;68091;52.130;5.570;2023-09-07T01:03:58;18.10;99.90
78550;DHT22;68091;52.130;5.570;2023-09-07T01:06:29;18.10;99.90
78550;DHT22;68091;52.130;5.570;2023-09-07T01:08:56;18.10;99.90
78550;DHT22;68091;52.130;5.570;2023-09-07T01:11:23;18.10;99.90
78550;DHT22;68091;52.130;5.570;2023-09-07T01:13:49;18.00;99.90
78550;DHT22;68091;52.130;5.570;2023-09-07T01:16:15;18.00;99.90
78550;DHT22;68091;52.130;5.570;2023-09-07T01:18:41;18.00;99.90
78550;DHT22;68091;52.130;5.570;2023-09-07T01:21:08;17.90;99.90
78550;DHT22;68091;52.130;5.570;2023-09-07T01:23:40;17.90;99.90
78550;DHT22;68091;52.130;5.570;2023-09-07T01:26:07;17.80;99.90
78550;DHT22;68091;52.130;5.570;2023-09-07T01:28:33;17.80;99.90
78550;DHT22;68091;52.130;5.570;2023-09-07T01:30:59;17.80;99.90
78550;DHT22;68091;52.130;5.570;2023-09-07T01:33:26;17.80;99.90
78550;DHT22;68091;52.130;5.570;2023-09-07T01:35:52;17.80;99.90
78550;DHT22;68091;52.130;5.570;2023-09-07T01:38:17;17.80;99.90
78550;DHT22;68091;52.130;5.570;2023-09-07T01:40:43;17.80;99.90
78550;DHT22;68091;52.130;5.570;2023-09-07T01:43:08;17.80;99.90
78550;DHT22;68091;52.130;5.570;2023-09-07T01:45:34;17.70;99.90
78550;DHT22;68091;52.130;5.570;2023-09-07T01:48:00;17.70;99.90
78550;DHT22;68091;52.130;5.570;2023-09-07T01:50:25;17.70;99.90
78550;DHT22;68091;52.130;5.570;2023-09-07T01:52:53;17.60;99.90
78550;DHT22;68091;52.130;5.570;2023-09-07T01:55:19;17.60;99.90
78550;DHT22;68091;52.130;5.570;2023-09-07T01:57:45;17.60;99.90
78550;DHT22;68091;52.130;5.570;2023-09-07T02:00:11;17.60;99.90
78550;DHT22;68091;52.130;5.570;2023-09-07T02:02:37;17.60;99.90
78550;DHT22;68091;52.130;5.570;2023-09-07T02:05:03;17.60;99.90
78550;DHT22;68091;52.130;5.570;2023-09-07T02:07:29;17.60;99.90
78550;DHT22;68091;52.130;5.570;2023-09-07T02:09:55;17.50;99.90
78550;DHT22;68091;52.130;5.570;2023-09-07T02:12:20;17.50;99.90
78550;DHT22;68091;52.130;5.570;2023-09-07T02:14:49;17.40;99.90
78550;DHT22;68091;52.130;5.570;2023-09-07T02:17:14;17.40;99.90
78550;DHT22;68091;52.130;5.570;2023-09-07T02:19:46;17.40;99.90
78550;DHT22;68091;52.130;5.570;2023-09-07T02:22:11;17.40;99.90
78550;DHT22;68091;52.130;5.570;2023-09-07T02:24:37;17.40;99.90
78550;DHT22;68091;52.130;5.570;2023-09-07T02:27:02;17.30;99.90
78550;DHT22;68091;52.130;5.570;2023-09-07T02:29:28;17.30;99.90
78550;DHT22;68091;52.130;5.570;2023-09-07T02:31:54;17.20;99.90
78550;DHT22;68091;52.130;5.570;2023-09-07T02:34:19;17.30;99.90
78550;DHT22;68091;52.130;5.570;2023-09-07T02:36:45;17.30;99.90
78550;DHT22;68091;52.130;5.570;2023-09-07T02:39:10;17.30;99.90
78550;DHT22;68091;52.130;5.570;2023-09-07T02:41:37;17.30;99.90
78550;DHT22;68091;52.130;5.570;2023-09-07T02:44:05;17.30;99.90
78550;DHT22;68091;52.130;5.570;2023-09-07T02:46:31;17.30;99.90
78550;DHT22;68091;52.130;5.570;2023-09-07T02:48:57;17.20;99.90
78550;DHT22;68091;52.130;5.570;2023-09-07T02:51:23;17.20;99.90
78550;DHT22;68091;52.130;5.570;2023-09-07T02:53:49;17.20;99.90
78550;DHT22;68091;52.130;5.570;2023-09-07T02:56:17;17.20;99.90
78550;DHT22;68091;52.130;5.570;2023-09-07T02:58:43;17.20;99.90
78550;DHT22;68091;52.130;5.570;2023-09-07T03:01:08;17.20;99.90
78550;DHT22;68091;52.130;5.570;2023-09-07T03:03:34;17.20;99.90
78550;DHT22;68091;52.130;5.570;2023-09-07T03:06:10;17.20;99.90
78550;DHT22;68091;52.130;5.570;2023-09-07T03:08:36;17.10;99.90
78550;DHT22;68091;52.130;5.570;2023-09-07T03:11:05;17.10;99.90
78550;DHT22;68091;52.130;5.570;2023-09-07T03:13:31;17.10;99.90
78550;DHT22;68091;52.130;5.570;2023-09-07T03:15:56;17.10;99.90
78550;DHT22;68091;52.130;5.570;2023-09-07T03:18:22;17.10;99.90
78550;DHT22;68091;52.130;5.570;2023-09-07T03:20:48;17.00;99.90
78550;DHT22;68091;52.130;5.570;2023-09-07T03:23:13;17.00;99.90
78550;DHT22;68091;52.130;5.570;2023-09-07T03:25:45;16.90;99.90
78550;DHT22;68091;52.130;5.570;2023-09-07T03:28:11;17.00;99.90
78550;DHT22;68091;52.130;5.570;2023-09-07T03:30:36;16.90;99.90
78550;DHT22;68091;52.130;5.570;2023-09-07T03:33:02;16.80;99.90
78550;DHT22;68091;52.130;5.570;2023-09-07T03:35:28;16.80;99.90
78550;DHT22;68091;52.130;5.570;2023-09-07T03:37:54;16.80;99.90
78550;DHT22;68091;52.130;5.570;2023-09-07T03:40:20;16.80;99.90
78550;DHT22;68091;52.130;5.570;2023-09-07T03:42:45;16.80;99.90
78550;DHT22;68091;52.130;5.570;2023-09-07T03:45:11;16.70;99.90
78550;DHT22;68091;52.130;5.570;2023-09-07T03:47:37;16.70;99.90
78550;DHT22;68091;52.130;5.570;2023-09-07T03:50:03;16.70;99.90
78550;DHT22;68091;52.130;5.570;2023-09-07T03:52:29;16.70;99.90
78550;DHT22;68091;52.130;5.570;2023-09-07T03:54:54;16.70;99.90
78550;DHT22;68091;52.130;5.570;2023-09-07T03:57:23;16.70;99.90
78550;DHT22;68091;52.130;5.570;2023-09-07T03:59:49;16.70;99.90
78550;DHT22;68091;52.130;5.570;2023-09-07T04:02:15;16.70;99.90
78550;DHT22;68091;52.130;5.570;2023-09-07T04:04:42;16.60;99.90
78550;DHT22;68091;52.130;5.570;2023-09-07T04:07:08;16.60;99.90
78550;DHT22;68091;52.130;5.570;2023-09-07T04:09:33;16.60;99.90
78550;DHT22;68091;52.130;5.570;2023-09-07T04:11:59;16.60;99.90
78550;DHT22;68091;52.130;5.570;2023-09-07T04:14:26;16.70;99.90
78550;DHT22;68091;52.130;5.570;2023-09-07T04:16:51;16.60;99.90
78550;DHT22;68091;52.130;5.570;2023-09-07T04:19:17;16.60;99.90
78550;DHT22;68091;52.130;5.570;2023-09-07T04:21:45;16.50;99.90
78550;DHT22;68091;52.130;5.570;2023-09-07T04:24:11;16.40;99.90
78550;DHT22;68091;52.130;5.570;2023-09-07T04:26:37;16.40;99.90
78550;DHT22;68091;52.130;5.570;2023-09-07T04:29:03;16.30;99.90
78550;DHT22;68091;52.130;5.570;2023-09-07T04:31:29;16.30;99.90
78550;DHT22;68091;52.130;5.570;2023-09-07T04:33:55;16.20;99.90
78550;DHT22;68091;52.130;5.570;2023-09-07T04:36:20;16.10;99.90
78550;DHT22;68091;52.130;5.570;2023-09-07T04:38:46;16.10;99.90
78550;DHT22;68091;52.130;5.570;2023-09-07T04:41:13;16.00;99.90
78550;DHT22;68091;52.130;5.570;2023-09-07T04:43:39;15.90;99.90
78550;DHT22;68091;52.130;5.570;2023-09-07T04:46:11;15.90;99.90
78550;DHT22;68091;52.130;5.570;2023-09-07T04:48:36;15.80;99.90
78550;DHT22;68091;52.130;5.570;2023-09-07T04:51:03;15.70;99.90
78550;DHT22;68091;52.130;5.570;2023-09-07T04:53:29;15.70;99.90
78550;DHT22;68091;52.130;5.570;2023-09-07T04:55:55;15.70;99.90
78550;DHT22;68091;52.130;5.570;2023-09-07T04:58:20;15.70;99.90
78550;DHT22;68091;52.130;5.570;2023-09-07T05:00:46;15.70;99.90
78550;DHT22;68091;52.130;5.570;2023-09-07T05:03:11;15.80;99.90
78550;DHT22;68091;52.130;5.570;2023-09-07T05:05:38;15.80;99.90
78550;DHT22;68091;52.130;5.570;2023-09-07T05:08:04;15.80;99.90
78550;DHT22;68091;52.130;5.570;2023-09-07T05:10:32;15.80;99.90
78550;DHT22;68091;52.130;5.570;2023-09-07T05:12:58;15.90;99.90
78550;DHT22;68091;52.130;5.570;2023-09-07T05:15:24;15.90;99.90
78550;DHT22;68091;52.130;5.570;2023-09-07T05:17:50;15.90;99.90
78550;DHT22;68091;52.130;5.570;2023-09-07T05:20:15;16.00;99.90
78550;DHT22;68091;52.130;5.570;2023-09-07T05:22:41;16.00;99.90
78550;DHT22;68091;52.130;5.570;2023-09-07T05:25:06;16.00;99.90
78550;DHT22;68091;52.130;5.570;2023-09-07T05:27:34;16.10;99.90
78550;DHT22;68091;52.130;5.570;2023-09-07T05:29:59;16.00;99.90
78550;DHT22;68091;52.130;5.570;2023-09-07T05:32:25;16.10;99.90
78550;DHT22;68091;52.130;5.570;2023-09-07T05:34:53;16.10;99.90
78550;DHT22;68091;52.130;5.570;2023-09-07T05:37:22;16.20;99.90
78550;DHT22;68091;52.130;5.570;2023-09-07T05:39:48;16.20;99.90
78550;DHT22;68091;52.130;5.570;2023-09-07T05:42:14;16.30;99.90
78550;DHT22;68091;52.130;5.570;2023-09-07T05:44:39;16.40;99.90
78550;DHT22;68091;52.130;5.570;2023-09-07T05:47:05;16.40;99.90
78550;DHT22;68091;52.130;5.570;2023-09-07T05:49:31;16.40;99.90
78550;DHT22;68091;52.130;5.570;2023-09-07T05:51:56;16.50;99.90
78550;DHT22;68091;52.130;5.570;2023-09-07T05:54:22;16.60;99.90
78550;DHT22;68091;52.130;5.570;2023-09-07T05:56:51;16.60;99.90
78550;DHT22;68091;52.130;5.570;2023-09-07T05:59:16;16.70;99.90
78550;DHT22;68091;52.130;5.570;2023-09-07T06:01:42;16.70;99.90
78550;DHT22;68091;52.130;5.570;2023-09-07T06:04:07;16.80;99.90
78550;DHT22;68091;52.130;5.570;2023-09-07T06:06:33;16.90;99.90
78550;DHT22;68091;52.130;5.570;2023-09-07T06:08:58;17.00;99.90
78550;DHT22;68091;52.130;5.570;2023-09-07T06:11:24;17.00;99.90
78550;DHT22;68091;52.130;5.570;2023-09-07T06:13:50;17.10;99.90
78550;DHT22;68091;52.130;5.570;2023-09-07T06:16:16;17.20;99.90
78550;DHT22;68091;52.130;5.570;2023-09-07T06:18:41;17.20;99.90
78550;DHT22;68091;52.130;5.570;2023-09-07T06:21:07;17.30;99.90
78550;DHT22;68091;52.130;5.570;2023-09-07T06:23:33;17.40;99.90
78550;DHT22;68091;52.130;5.570;2023-09-07T06:25:59;17.40;99.90
78550;DHT22;68091;52.130;5.570;2023-09-07T06:28:24;17.50;99.90
78550;DHT22;68091;52.130;5.570;2023-09-07T06:30:50;17.60;99.90
78550;DHT22;68091;52.130;5.570;2023-09-07T06:33:15;17.60;99.90
78550;DHT22;68091;52.130;5.570;2023-09-07T06:35:42;17.70;99.90
78550;DHT22;68091;52.130;5.570;2023-09-07T06:38:08;17.70;99.90
78550;DHT22;68091;52.130;5.570;2023-09-07T06:40:33;17.70;99.90
78550;DHT22;68091;52.130;5.570;2023-09-07T06:42:59;17.80;99.90
78550;DHT22;68091;52.130;5.570;2023-09-07T06:45:25;17.90;99.90
78550;DHT22;68091;52.130;5.570;2023-09-07T06:47:51;18.00;99.90
78550;DHT22;68091;52.130;5.570;2023-09-07T06:50:16;18.10;99.90
78550;DHT22;68091;52.130;5.570;2023-09-07T06:52:42;18.10;99.90
78550;DHT22;68091;52.130;5.570;2023-09-07T06:55:08;18.20;99.90
78550;DHT22;68091;52.130;5.570;2023-09-07T06:57:33;18.30;99.90
78550;DHT22;68091;52.130;5.570;2023-09-07T06:59:59;18.40;99.90
78550;DHT22;68091;52.130;5.570;2023-09-07T07:02:25;18.60;99.90
78550;DHT22;68091;52.130;5.570;2023-09-07T07:04:50;18.60;99.90
78550;DHT22;68091;52.130;5.570;2023-09-07T07:07:16;18.80;99.90
78550;DHT22;68091;52.130;5.570;2023-09-07T07:09:42;19.00;99.90
78550;DHT22;68091;52.130;5.570;2023-09-07T07:12:07;19.10;99.90
78550;DHT22;68091;52.130;5.570;2023-09-07T07:14:33;19.40;99.90
78550;DHT22;68091;52.130;5.570;2023-09-07T07:16:59;19.70;99.90
78550;DHT22;68091;52.130;5.570;2023-09-07T07:19:30;19.90;99.90
78550;DHT22;68091;52.130;5.570;2023-09-07T07:21:56;20.10;99.90
78550;DHT22;68091;52.130;5.570;2023-09-07T07:24:21;20.30;99.90
78550;DHT22;68091;52.130;5.570;2023-09-07T07:26:47;20.50;99.90
78550;DHT22;68091;52.130;5.570;2023-09-07T07:29:13;20.60;99.90
78550;DHT22;68091;52.130;5.570;2023-09-07T07:31:51;20.70;99.90
78550;DHT22;68091;52.130;5.570;2023-09-07T07:34:16;20.90;99.90
78550;DHT22;68091;52.130;5.570;2023-09-07T07:36:42;21.00;99.90
78550;DHT22;68091;52.130;5.570;2023-09-07T07:39:08;21.20;99.90
78550;DHT22;68091;52.130;5.570;2023-09-07T07:41:33;21.30;99.90
78550;DHT22;68091;52.130;5.570;2023-09-07T07:43:59;21.30;99.90
78550;DHT22;68091;52.130;5.570;2023-09-07T07:46:24;21.50;99.90
78550;DHT22;68091;52.130;5.570;2023-09-07T07:48:50;21.60;99.90
78550;DHT22;68091;52.130;5.570;2023-09-07T07:51:15;21.80;99.90
78550;DHT22;68091;52.130;5.570;2023-09-07T07:53:41;21.90;99.90
78550;DHT22;68091;52.130;5.570;2023-09-07T07:56:14;22.00;99.90
78550;DHT22;68091;52.130;5.570;2023-09-07T07:58:40;22.20;99.90
78550;DHT22;68091;52.130;5.570;2023-09-07T08:01:12;22.20;99.90
78550;DHT22;68091;52.130;5.570;2023-09-07T08:03:38;22.30;99.90
78550;DHT22;68091;52.130;5.570;2023-09-07T08:06:04;22.40;99.90
78550;DHT22;68091;52.130;5.570;2023-09-07T08:08:29;22.50;99.90
78550;DHT22;68091;52.130;5.570;2023-09-07T08:10:55;22.60;99.90
78550;DHT22;68091;52.130;5.570;2023-09-07T08:13:22;22.80;99.90
78550;DHT22;68091;52.130;5.570;2023-09-07T08:15:48;22.80;99.90
78550;DHT22;68091;52.130;5.570;2023-09-07T08:18:14;22.90;99.90
78550;DHT22;68091;52.130;5.570;2023-09-07T08:20:40;22.90;99.90
78550;DHT22;68091;52.130;5.570;2023-09-07T08:23:09;23.00;99.90
78550;DHT22;68091;52.130;5.570;2023-09-07T08:25:36;23.10;99.90
78550;DHT22;68091;52.130;5.570;2023-09-07T08:28:04;23.30;99.90
78550;DHT22;68091;52.130;5.570;2023-09-07T08:30:30;23.50;99.90
78550;DHT22;68091;52.130;5.570;2023-09-07T08:32:56;23.60;99.90
78550;DHT22;68091;52.130;5.570;2023-09-07T08:35:22;23.70;99.90
78550;DHT22;68091;52.130;5.570;2023-09-07T08:37:52;23.70;99.90
78550;DHT22;68091;52.130;5.570;2023-09-07T08:40:18;23.90;99.90
78550;DHT22;68091;52.130;5.570;2023-09-07T08:42:44;23.90;99.90
78550;DHT22;68091;52.130;5.570;2023-09-07T08:45:09;24.10;99.90
78550;DHT22;68091;52.130;5.570;2023-09-07T08:47:37;24.10;99.90
78550;DHT22;68091;52.130;5.570;2023-09-07T08:50:04;24.20;99.90
78550;DHT22;68091;52.130;5.570;2023-09-07T08:52:32;24.30;99.90
78550;DHT22;68091;52.130;5.570;2023-09-07T08:54:57;24.40;99.90
78550;DHT22;68091;52.130;5.570;2023-09-07T08:57:27;24.50;99.90
78550;DHT22;68091;52.130;5.570;2023-09-07T08:59:54;24.60;99.90
78550;DHT22;68091;52.130;5.570;2023-09-07T09:02:20;24.70;99.90
78550;DHT22;68091;52.130;5.570;2023-09-07T09:04:46;24.80;99.90
78550;DHT22;68091;52.130;5.570;2023-09-07T09:07:11;24.90;99.90
78550;DHT22;68091;52.130;5.570;2023-09-07T09:09:37;25.00;99.90
78550;DHT22;68091;52.130;5.570;2023-09-07T09:12:12;25.00;99.90
78550;DHT22;68091;52.130;5.570;2023-09-07T09:14:44;25.10;99.90
78550;DHT22;68091;52.130;5.570;2023-09-07T09:17:13;25.20;99.90
78550;DHT22;68091;52.130;5.570;2023-09-07T09:19:40;25.30;99.90
78550;DHT22;68091;52.130;5.570;2023-09-07T09:22:07;25.40;99.90
78550;DHT22;68091;52.130;5.570;2023-09-07T09:24:33;25.50;99.90
78550;DHT22;68091;52.130;5.570;2023-09-07T09:26:59;25.70;99.90
78550;DHT22;68091;52.130;5.570;2023-09-07T09:29:25;25.80;99.90
78550;DHT22;68091;52.130;5.570;2023-09-07T09:31:51;25.90;99.90
78550;DHT22;68091;52.130;5.570;2023-09-07T09:34:19;26.00;99.90
78550;DHT22;68091;52.130;5.570;2023-09-07T09:36:45;26.10;99.90
78550;DHT22;68091;52.130;5.570;2023-09-07T09:39:20;26.20;99.90
78550;DHT22;68091;52.130;5.570;2023-09-07T09:41:52;26.20;99.90
78550;DHT22;68091;52.130;5.570;2023-09-07T09:44:19;26.20;99.90
78550;DHT22;68091;52.130;5.570;2023-09-07T09:46:46;26.20;99.90
78550;DHT22;68091;52.130;5.570;2023-09-07T09:49:12;26.40;99.90
78550;DHT22;68091;52.130;5.570;2023-09-07T09:51:39;26.50;99.90
78550;DHT22;68091;52.130;5.570;2023-09-07T09:54:04;26.60;99.90
78550;DHT22;68091;52.130;5.570;2023-09-07T09:56:31;26.60;99.90
78550;DHT22;68091;52.130;5.570;2023-09-07T09:58:57;26.60;99.90
78550;DHT22;68091;52.130;5.570;2023-09-07T10:01:22;26.70;99.90
78550;DHT22;68091;52.130;5.570;2023-09-07T10:03:48;26.80;99.90
78550;DHT22;68091;52.130;5.570;2023-09-07T10:06:24;26.90;99.90
78550;DHT22;68091;52.130;5.570;2023-09-07T10:09:03;27.00;99.90
78550;DHT22;68091;52.130;5.570;2023-09-07T10:11:35;27.00;99.90
78550;DHT22;68091;52.130;5.570;2023-09-07T10:14:05;27.00;99.90
78550;DHT22;68091;52.130;5.570;2023-09-07T10:16:47;27.20;99.90
78550;DHT22;68091;52.130;5.570;2023-09-07T10:19:23;27.30;99.90
78550;DHT22;68091;52.130;5.570;2023-09-07T10:21:50;27.30;99.90
78550;DHT22;68091;52.130;5.570;2023-09-07T10:24:32;27.30;99.90
78550;DHT22;68091;52.130;5.570;2023-09-07T10:32:25;27.70;99.90
78550;DHT22;68091;52.130;5.570;2023-09-07T10:34:51;27.80;99.90
78550;DHT22;68091;52.130;5.570;2023-09-07T10:37:16;27.80;99.90
78550;DHT22;68091;52.130;5.570;2023-09-07T10:39:43;27.80;99.90
78550;DHT22;68091;52.130;5.570;2023-09-07T10:42:19;27.90;99.90
78550;DHT22;68091;52.130;5.570;2023-09-07T10:44:45;28.00;99.90
78550;DHT22;68091;52.130;5.570;2023-09-07T10:47:10;28.10;99.90
78550;DHT22;68091;52.130;5.570;2023-09-07T10:49:37;28.20;99.90
78550;DHT22;68091;52.130;5.570;2023-09-07T10:52:03;28.20;99.90
78550;DHT22;68091;52.130;5.570;2023-09-07T10:54:29;28.20;99.90
78550;DHT22;68091;52.130;5.570;2023-09-07T10:56:55;28.30;99.90
78550;DHT22;68091;52.130;5.570;2023-09-07T10:59:23;28.50;99.90
78550;DHT22;68091;52.130;5.570;2023-09-07T11:01:48;28.40;99.90
78550;DHT22;68091;52.130;5.570;2023-09-07T11:04:14;28.50;99.90
78550;DHT22;68091;52.130;5.570;2023-09-07T11:06:42;28.50;99.90
78550;DHT22;68091;52.130;5.570;2023-09-07T11:09:08;28.60;99.90
78550;DHT22;68091;52.130;5.570;2023-09-07T11:11:35;28.70;99.90
78550;DHT22;68091;52.130;5.570;2023-09-07T11:14:05;28.70;99.90
78550;DHT22;68091;52.130;5.570;2023-09-07T11:16:30;28.90;99.90
78550;DHT22;68091;52.130;5.570;2023-09-07T11:18:56;28.90;99.90
78550;DHT22;68091;52.130;5.570;2023-09-07T11:21:22;29.00;99.90
78550;DHT22;68091;52.130;5.570;2023-09-07T11:23:51;29.10;99.90
78550;DHT22;68091;52.130;5.570;2023-09-07T11:26:17;29.00;99.90
78550;DHT22;68091;52.130;5.570;2023-09-07T11:28:45;29.10;99.90
78550;DHT22;68091;52.130;5.570;2023-09-07T11:31:10;29.10;99.90
78550;DHT22;68091;52.130;5.570;2023-09-07T11:33:36;29.20;99.90
78550;DHT22;68091;52.130;5.570;2023-09-07T11:36:04;29.20;99.90
78550;DHT22;68091;52.130;5.570;2023-09-07T11:38:35;29.20;99.90
78550;DHT22;68091;52.130;5.570;2023-09-07T11:41:01;29.20;99.90
78550;DHT22;68091;52.130;5.570;2023-09-07T11:43:26;29.40;99.90
78550;DHT22;68091;52.130;5.570;2023-09-07T11:45:52;29.40;99.90
78550;DHT22;68091;52.130;5.570;2023-09-07T11:48:17;29.50;99.90
78550;DHT22;68091;52.130;5.570;2023-09-07T11:50:43;29.60;99.90
78550;DHT22;68091;52.130;5.570;2023-09-07T11:53:09;29.50;99.90
78550;DHT22;68091;52.130;5.570;2023-09-07T11:55:34;29.60;99.90
78550;DHT22;68091;52.130;5.570;2023-09-07T11:58:04;29.80;99.90
78550;DHT22;68091;52.130;5.570;2023-09-07T12:00:35;29.80;99.90
78550;DHT22;68091;52.130;5.570;2023-09-07T12:03:02;29.80;99.90
78550;DHT22;68091;52.130;5.570;2023-09-07T12:05:27;29.80;99.90
78550;DHT22;68091;52.130;5.570;2023-09-07T12:07:53;29.70;99.90
78550;DHT22;68091;52.130;5.570;2023-09-07T12:10:19;29.90;99.90
78550;DHT22;68091;52.130;5.570;2023-09-07T12:12:56;29.90;99.90
78550;DHT22;68091;52.130;5.570;2023-09-07T12:15:21;29.90;99.90
78550;DHT22;68091;52.130;5.570;2023-09-07T12:17:47;29.90;99.90
78550;DHT22;68091;52.130;5.570;2023-09-07T12:20:13;30.00;99.90
78550;DHT22;68091;52.130;5.570;2023-09-07T12:22:39;30.00;99.90
78550;DHT22;68091;52.130;5.570;2023-09-07T12:25:07;29.90;99.90
78550;DHT22;68091;52.130;5.570;2023-09-07T12:27:33;29.90;99.90
78550;DHT22;68091;52.130;5.570;2023-09-07T12:30:00;29.90;99.90
78550;DHT22;68091;52.130;5.570;2023-09-07T12:32:25;30.00;99.90
78550;DHT22;68091;52.130;5.570;2023-09-07T12:34:51;30.10;99.90
78550;DHT22;68091;52.130;5.570;2023-09-07T12:37:19;30.30;99.90
78550;DHT22;68091;52.130;5.570;2023-09-07T12:39:44;30.30;99.90
78550;DHT22;68091;52.130;5.570;2023-09-07T12:42:13;30.30;99.90
78550;DHT22;68091;52.130;5.570;2023-09-07T12:44:40;30.40;99.90
78550;DHT22;68091;52.130;5.570;2023-09-07T12:47:05;30.40;99.90
78550;DHT22;68091;52.130;5.570;2023-09-07T12:49:31;30.40;99.90
78550;DHT22;68091;52.130;5.570;2023-09-07T12:51:56;30.40;99.90
78550;DHT22;68091;52.130;5.570;2023-09-07T12:54:22;30.50;99.90
78550;DHT22;68091;52.130;5.570;2023-09-07T12:56:47;30.60;99.90
78550;DHT22;68091;52.130;5.570;2023-09-07T12:59:13;30.80;99.90
78550;DHT22;68091;52.130;5.570;2023-09-07T13:01:38;30.80;99.90
78550;DHT22;68091;52.130;5.570;2023-09-07T13:04:04;30.80;99.90
78550;DHT22;68091;52.130;5.570;2023-09-07T13:06:30;30.80;99.90
78550;DHT22;68091;52.130;5.570;2023-09-07T13:08:56;30.80;99.90
78550;DHT22;68091;52.130;5.570;2023-09-07T13:11:21;30.90;99.90
78550;DHT22;68091;52.130;5.570;2023-09-07T13:13:47;30.90;99.90
78550;DHT22;68091;52.130;5.570;2023-09-07T13:16:15;31.00;99.90
78550;DHT22;68091;52.130;5.570;2023-09-07T13:18:41;31.30;99.90
78550;DHT22;68091;52.130;5.570;2023-09-07T13:21:07;31.30;99.90
78550;DHT22;68091;52.130;5.570;2023-09-07T13:23:33;31.30;99.90
78550;DHT22;68091;52.130;5.570;2023-09-07T13:25:58;31.30;99.90
78550;DHT22;68091;52.130;5.570;2023-09-07T13:28:25;31.50;99.90
78550;DHT22;68091;52.130;5.570;2023-09-07T13:30:51;31.60;99.90
78550;DHT22;68091;52.130;5.570;2023-09-07T13:33:17;32.00;99.90
78550;DHT22;68091;52.130;5.570;2023-09-07T13:35:42;32.30;99.90
78550;DHT22;68091;52.130;5.570;2023-09-07T13:38:09;32.60;99.90
78550;DHT22;68091;52.130;5.570;2023-09-07T13:40:35;32.60;99.90
78550;DHT22;68091;52.130;5.570;2023-09-07T13:43:01;32.60;99.90
78550;DHT22;68091;52.130;5.570;2023-09-07T13:45:26;32.90;99.90
78550;DHT22;68091;52.130;5.570;2023-09-07T13:47:54;33.00;99.90
78550;DHT22;68091;52.130;5.570;2023-09-07T13:50:20;33.40;99.90
78550;DHT22;68091;52.130;5.570;2023-09-07T13:52:45;33.60;99.90
78550;DHT22;68091;52.130;5.570;2023-09-07T13:55:14;33.60;98.00
78550;DHT22;68091;52.130;5.570;2023-09-07T13:57:39;33.60;99.20
78550;DHT22;68091;52.130;5.570;2023-09-07T14:00:05;33.50;98.50
78550;DHT22;68091;52.130;5.570;2023-09-07T14:02:31;33.60;98.00
78550;DHT22;68091;52.130;5.570;2023-09-07T14:04:58;33.60;98.20
78550;DHT22;68091;52.130;5.570;2023-09-07T14:07:23;33.60;97.90
78550;DHT22;68091;52.130;5.570;2023-09-07T14:09:51;34.20;98.30
78550;DHT22;68091;52.130;5.570;2023-09-07T14:12:17;33.90;96.80
78550;DHT22;68091;52.130;5.570;2023-09-07T14:14:42;34.00;97.20
78550;DHT22;68091;52.130;5.570;2023-09-07T14:17:08;34.10;98.50
78550;DHT22;68091;52.130;5.570;2023-09-07T14:19:34;33.80;97.10
78550;DHT22;68091;52.130;5.570;2023-09-07T14:22:00;33.30;97.00
78550;DHT22;68091;52.130;5.570;2023-09-07T14:24:25;33.20;96.80
78550;DHT22;68091;52.130;5.570;2023-09-07T14:26:51;33.00;96.80
78550;DHT22;68091;52.130;5.570;2023-09-07T14:29:17;32.70;97.70
78550;DHT22;68091;52.130;5.570;2023-09-07T14:31:45;32.40;97.60
78550;DHT22;68091;52.130;5.570;2023-09-07T14:34:11;32.20;98.50
78550;DHT22;68091;52.130;5.570;2023-09-07T14:36:37;32.10;99.50
78550;DHT22;68091;52.130;5.570;2023-09-07T14:39:05;32.30;99.60
78550;DHT22;68091;52.130;5.570;2023-09-07T14:41:32;32.60;99.40
78550;DHT22;68091;52.130;5.570;2023-09-07T14:43:58;32.70;98.80
78550;DHT22;68091;52.130;5.570;2023-09-07T14:46:23;32.70;98.80
78550;DHT22;68091;52.130;5.570;2023-09-07T14:48:50;32.30;97.50
78550;DHT22;68091;52.130;5.570;2023-09-07T14:51:15;32.10;98.80
78550;DHT22;68091;52.130;5.570;2023-09-07T14:53:41;32.00;98.70
78550;DHT22;68091;52.130;5.570;2023-09-07T14:56:06;32.00;98.50
78550;DHT22;68091;52.130;5.570;2023-09-07T14:58:32;32.20;98.30
78550;DHT22;68091;52.130;5.570;2023-09-07T15:00:58;32.60;98.80
78550;DHT22;68091;52.130;5.570;2023-09-07T15:03:23;32.90;98.10
78550;DHT22;68091;52.130;5.570;2023-09-07T15:05:49;32.70;97.90
78550;DHT22;68091;52.130;5.570;2023-09-07T15:08:18;32.40;97.80
78550;DHT22;68091;52.130;5.570;2023-09-07T15:10:43;32.30;98.40
78550;DHT22;68091;52.130;5.570;2023-09-07T15:13:09;32.60;98.20
78550;DHT22;68091;52.130;5.570;2023-09-07T15:15:35;33.10;98.40
78550;DHT22;68091;52.130;5.570;2023-09-07T15:18:08;33.60;96.00
78550;DHT22;68091;52.130;5.570;2023-09-07T15:20:34;34.00;95.80
78550;DHT22;68091;52.130;5.570;2023-09-07T15:23:00;34.00;95.10
78550;DHT22;68091;52.130;5.570;2023-09-07T15:25:28;34.40;95.80
78550;DHT22;68091;52.130;5.570;2023-09-07T15:27:54;35.10;94.80
78550;DHT22;68091;52.130;5.570;2023-09-07T15:30:19;35.80;94.80